Time;durP1;ratioP1;P1;durP2;ratioP2;P2;SDS_P1;SDS_P2;PMS_P1;PMS_P2;Temp;Humidity;BMP_temperature;BMP_pressure;BME280_temperature;BME280_humidity;BME280_pressure;Samples;Min_cycle;Max_cycle;Signal;HPM_P1;HPM_P2
2022/06/09 00:01:41;;;;;;;4.15;1.58;;;;;;;14.37;100.00;96158.78;4989844;28;20603;-68
2022/06/09 00:04:13;;;;;;;5.38;1.35;;;;;;;14.41;100.00;96174.09;4994723;28;20045;-68
2022/06/09 00:06:51;;;;;;;3.50;1.30;;;;;;;14.35;100.00;96167.47;4993641;28;20521;-62
2022/06/09 00:09:20;;;;;;;3.78;1.23;;;;;;;14.30;100.00;96171.44;4987518;28;20038;-66
2022/06/09 00:11:49;;;;;;;5.20;1.50;;;;;;;14.29;100.00;96172.59;4984782;28;20073;-67
2022/06/09 00:14:15;;;;;;;5.63;1.47;;;;;;;14.17;100.00;96169.53;4988107;28;20066;-63
2022/06/09 00:16:41;;;;;;;2.80;1.63;;;;;;;14.04;100.00;96164.50;4980682;28;20365;-67
2022/06/09 00:19:07;;;;;;;3.22;1.67;;;;;;;13.97;100.00;96167.28;4979906;28;20041;-63
2022/06/09 00:21:34;;;;;;;2.83;1.20;;;;;;;13.88;100.00;96170.50;4984331;28;20041;-67
2022/06/09 00:24:00;;;;;;;7.35;1.42;;;;;;;13.84;100.00;96169.72;4986085;28;20683;-68
2022/06/09 00:26:26;;;;;;;6.10;1.50;;;;;;;13.80;100.00;96173.69;4987169;28;20053;-67
2022/06/09 00:28:51;;;;;;;4.75;1.90;;;;;;;13.66;100.00;96169.78;5003199;28;20034;-65
2022/06/09 00:31:17;;;;;;;2.70;1.40;;;;;;;13.53;100.00;96180.47;4986474;28;20041;-66
2022/06/09 00:33:43;;;;;;;8.75;1.90;;;;;;;13.47;100.00;96173.00;4984945;28;20053;-65
2022/06/09 00:36:09;;;;;;;2.35;1.70;;;;;;;13.35;100.00;96180.53;4985379;28;20697;-64
2022/06/09 00:38:34;;;;;;;5.15;2.03;;;;;;;13.20;100.00;96178.97;4982917;28;20053;-68
2022/06/09 00:41:00;;;;;;;4.90;2.25;;;;;;;13.26;100.00;96187.59;4984489;28;20049;-66
2022/06/09 00:43:30;;;;;;;6.65;1.80;;;;;;;13.39;100.00;96186.78;4978832;28;20050;-66
2022/06/09 00:46:11;;;;;;;4.80;1.60;;;;;;;13.48;100.00;96185.59;5017941;23;20148;-68
2022/06/09 00:48:47;;;;;;;3.47;1.63;;;;;;;13.65;100.00;96183.94;5002952;28;20184;-68
2022/06/09 00:51:43;;;;;;;5.68;1.70;;;;;;;13.73;100.00;96182.75;5018502;28;20323;-67
2022/06/09 00:54:14;;;;;;;3.13;1.83;;;;;;;13.65;100.00;96186.69;5012596;28;20111;-66
2022/06/09 00:56:55;;;;;;;6.18;1.65;;;;;;;13.54;100.00;96184.00;5015531;28;20037;-67
2022/06/09 00:59:26;;;;;;;8.10;1.60;;;;;;;13.63;100.00;96183.56;5019657;28;20041;-68
2022/06/09 01:01:57;;;;;;;5.93;1.67;;;;;;;13.80;100.00;96184.69;5012388;28;20081;-67
2022/06/09 01:04:25;;;;;;;3.55;1.70;;;;;;;13.88;100.00;96183.47;5004713;28;20168;-68
2022/06/09 01:07:03;;;;;;;16.20;7.55;;;;;;;13.73;100.00;96180.78;5005509;28;20041;-66
2022/06/09 01:09:30;;;;;;;4.50;2.17;;;;;;;13.74;100.00;96192.59;5005457;28;20103;-66
2022/06/09 01:11:57;;;;;;;3.00;1.33;;;;;;;13.83;100.00;96192.13;5010660;28;20064;-65
2022/06/09 01:14:27;;;;;;;3.33;1.58;;;;;;;13.83;100.00;96178.38;5002346;28;20898;-66
2022/06/09 01:16:55;;;;;;;2.58;1.20;;;;;;;13.99;100.00;96189.72;5009666;28;20128;-66
2022/06/09 01:19:51;;;;;;;2.63;1.48;;;;;;;14.03;100.00;96182.22;5003055;28;20291;-67
2022/06/09 01:22:26;;;;;;;2.28;1.50;;;;;;;14.05;100.00;96184.56;5002802;28;20822;-67
2022/06/09 01:24:52;;;;;;;7.60;1.50;;;;;;;14.09;100.00;96186.09;5007865;28;20064;-66
2022/06/09 01:27:42;;;;;;;3.90;1.30;;;;;;;14.09;100.00;96180.59;5009358;28;20600;-67
2022/06/09 01:30:59;;;;;;;3.03;1.40;;;;;;;14.01;100.00;96186.53;5006321;28;20046;-66
2022/06/09 01:33:40;;;;;;;7.28;1.42;;;;;;;13.90;100.00;96195.66;4999707;28;20181;-68
2022/06/09 01:36:40;;;;;;;3.47;1.70;;;;;;;13.94;100.00;96192.88;5020695;28;20077;-67
2022/06/09 01:39:07;;;;;;;2.05;1.02;;;;;;;13.95;100.00;96183.44;5005431;28;20050;-67
2022/06/09 01:41:34;;;;;;;3.58;1.40;;;;;;;13.72;100.00;96198.50;5013769;28;20121;-67
2022/06/09 01:44:00;;;;;;;6.22;1.70;;;;;;;13.32;100.00;96197.03;5005549;28;20048;-66
2022/06/09 01:46:33;;;;;;;6.25;1.55;;;;;;;13.19;100.00;96202.16;4999138;28;20046;-67
2022/06/09 01:49:07;;;;;;;4.45;1.48;;;;;;;13.31;100.00;96199.00;5009529;28;20145;-67
2022/06/09 01:51:36;;;;;;;7.60;1.92;;;;;;;13.47;100.00;96206.03;5009093;28;20092;-68
2022/06/09 01:54:06;;;;;;;2.13;1.52;;;;;;;13.57;100.00;96206.00;5006068;28;20069;-68
2022/06/09 01:56:40;;;;;;;3.95;1.75;;;;;;;13.66;100.00;96213.81;5010799;28;20053;-67
2022/06/09 01:59:08;;;;;;;5.88;1.80;;;;;;;13.56;100.00;96209.16;5007591;28;20413;-67
2022/06/09 02:01:40;;;;;;;4.25;1.60;;;;;;;13.55;100.00;96207.59;5006487;28;20034;-67
2022/06/09 02:04:10;;;;;;;6.63;1.92;;;;;;;13.40;100.00;96217.84;5001778;28;20041;-65
2022/06/09 02:06:36;;;;;;;;;;;;;;;13.18;100.00;96211.56;5009951;28;20072;-66
2022/06/09 02:09:03;;;;;;;4.78;2.10;;;;;;;13.11;100.00;96222.59;5001894;28;19925;-66
2022/06/09 02:11:30;;;;;;;5.53;2.03;;;;;;;13.13;100.00;96220.22;5007128;28;20092;-66
2022/06/09 02:13:57;;;;;;;3.15;1.40;;;;;;;13.29;100.00;96231.59;5007513;28;20064;-68
2022/06/09 02:16:24;;;;;;;3.17;1.80;;;;;;;13.48;100.00;96216.63;5004771;28;20551;-66
2022/06/09 02:18:54;;;;;;;3.90;1.30;;;;;;;13.61;100.00;96221.72;5011113;28;20457;-67
2022/06/09 02:21:24;;;;;;;2.80;1.52;;;;;;;13.57;100.00;96225.25;5007147;28;20140;-67
2022/06/09 02:23:50;;;;;;;3.60;1.38;;;;;;;13.58;100.00;96215.81;5006643;28;20456;-66
2022/06/09 02:26:16;;;;;;;4.13;1.40;;;;;;;13.61;100.00;96227.22;4999465;28;20046;-67
2022/06/09 02:28:42;;;;;;;1.70;1.20;;;;;;;13.69;100.00;96231.53;5006726;28;20065;-68
2022/06/09 02:31:09;;;;;;;1.77;1.27;;;;;;;13.81;100.00;96230.28;5003856;28;20121;-67
2022/06/09 02:33:34;;;;;;;3.30;1.42;;;;;;;13.87;100.00;96234.22;5010017;28;20033;-65
2022/06/09 02:35:59;;;;;;;3.67;1.40;;;;;;;13.95;100.00;96238.50;5029877;28;20331;-66
2022/06/09 02:38:25;;;;;;;4.85;1.30;;;;;;;14.00;100.00;96238.06;5005812;28;20136;-66
2022/06/09 02:40:52;;;;;;;2.42;1.13;;;;;;;14.10;100.00;96234.50;5002039;28;20052;-66
2022/06/09 02:43:17;;;;;;;3.28;1.30;;;;;;;14.03;100.00;96242.00;4998933;28;20613;-68
2022/06/09 02:45:43;;;;;;;2.72;1.30;;;;;;;14.17;100.00;96241.13;5007805;28;20140;-66
2022/06/09 02:48:09;;;;;;;3.10;1.55;;;;;;;14.11;100.00;96238.03;5007048;28;20128;-67
2022/06/09 02:50:36;;;;;;;3.65;1.30;;;;;;;14.05;100.00;96240.41;5007000;28;20120;-67
2022/06/09 02:53:02;;;;;;;5.45;1.10;;;;;;;14.07;100.00;96240.78;5011841;28;20124;-67
2022/06/09 02:55:28;;;;;;;5.80;1.02;;;;;;;14.11;100.00;96238.03;5008234;28;20054;-67
2022/06/09 02:57:53;;;;;;;3.70;0.95;;;;;;;14.11;100.00;96235.28;5015174;28;20500;-67
2022/06/09 03:00:19;;;;;;;4.97;1.40;;;;;;;14.01;100.00;96239.66;5000008;28;22016;-66
2022/06/09 03:02:57;;;;;;;2.03;1.40;;;;;;;14.02;100.00;96243.97;5025532;28;20033;-66
2022/06/09 03:05:24;;;;;;;2.47;0.95;;;;;;;13.90;100.00;96238.91;5017940;28;22954;-65
2022/06/09 03:07:49;;;;;;;6.00;1.27;;;;;;;13.98;100.00;96243.19;5009831;28;20073;-66
2022/06/09 03:10:15;;;;;;;3.15;1.17;;;;;;;13.91;100.00;96249.50;5001037;28;20517;-65
2022/06/09 03:12:41;;;;;;;2.28;1.00;;;;;;;13.88;100.00;96255.84;5004900;28;20038;-65
2022/06/09 03:15:08;;;;;;;3.78;1.80;;;;;;;13.94;100.00;96243.22;5001074;28;20038;-65
2022/06/09 03:17:37;;;;;;;4.70;1.40;;;;;;;13.65;100.00;96242.53;5002462;28;20132;-66
2022/06/09 03:20:05;;;;;;;4.45;1.30;;;;;;;13.34;100.00;96242.22;5018757;28;20050;-65
2022/06/09 03:22:32;;;;;;;4.03;1.10;;;;;;;13.27;100.00;96249.66;5016397;28;20049;-69
2022/06/09 03:24:58;;;;;;;5.13;1.38;;;;;;;13.27;100.00;96250.47;5016637;28;20050;-66
2022/06/09 03:27:23;;;;;;;2.95;1.30;;;;;;;13.17;100.00;96259.50;5007383;28;20043;-67
2022/06/09 03:29:49;;;;;;;3.95;1.27;;;;;;;13.16;100.00;96264.22;5012719;28;20056;-67
2022/06/09 03:32:14;;;;;;;2.22;1.00;;;;;;;13.22;100.00;96261.06;5001848;28;20509;-68
2022/06/09 03:34:39;;;;;;;2.78;1.45;;;;;;;13.16;100.00;96272.47;5006065;28;20077;-68
2022/06/09 03:37:05;;;;;;;2.78;1.10;;;;;;;13.19;100.00;96270.88;5001631;28;20083;-67
2022/06/09 03:39:30;;;;;;;2.47;1.25;;;;;;;13.38;100.00;96267.75;5000189;28;20049;-68
2022/06/09 03:41:56;;;;;;;2.60;1.20;;;;;;;13.51;100.00;96270.09;5006226;28;20367;-67
2022/06/09 03:44:21;;;;;;;4.60;1.55;;;;;;;13.45;100.00;96280.72;4999700;28;20045;-67
2022/06/09 03:46:46;;;;;;;3.50;1.67;;;;;;;13.30;100.00;96279.91;5003848;28;20042;-66
2022/06/09 03:49:12;;;;;;;2.40;1.33;;;;;;;13.24;100.00;96283.47;5008816;28;20145;-67
2022/06/09 03:51:37;;;;;;;3.35;1.02;;;;;;;13.15;100.00;96278.38;5008801;28;20042;-68
2022/06/09 03:54:03;;;;;;;2.60;1.48;;;;;;;13.41;100.00;96285.41;4999767;28;20038;-67
2022/06/09 03:56:28;;;;;;;5.05;1.70;;;;;;;13.46;100.00;96287.78;5004744;28;20067;-68
2022/06/09 03:58:54;;;;;;;3.63;0.90;;;;;;;13.50;100.00;96282.28;5008524;28;20145;-67
2022/06/09 04:01:19;;;;;;;1.90;1.17;;;;;;;13.56;100.00;96292.47;5002216;28;20041;-67
2022/06/09 04:03:46;;;;;;;5.00;1.38;;;;;;;13.67;100.00;96289.72;5003847;28;20502;-67
2022/06/09 04:06:18;;;;;;;2.95;1.17;;;;;;;13.68;100.00;96299.53;5000757;28;20042;-67
2022/06/09 04:08:43;;;;;;;1.63;0.90;;;;;;;13.72;100.00;96297.56;5003152;28;20187;-66
2022/06/09 04:11:09;;;;;;;5.50;1.10;;;;;;;13.66;100.00;96293.63;4997860;28;20174;-67
2022/06/09 04:13:39;;;;;;;2.05;1.10;;;;;;;13.56;100.00;96292.47;5000187;28;20056;-67
2022/06/09 04:16:11;;;;;;;3.45;1.40;;;;;;;13.67;100.00;96305.44;4997915;28;20057;-66
2022/06/09 04:18:37;;;;;;;6.20;1.30;;;;;;;13.67;100.00;96305.44;5005569;28;20042;-67
2022/06/09 04:21:02;;;;;;;2.03;1.00;;;;;;;13.53;100.00;96301.53;5000870;28;20457;-65
2022/06/09 04:23:28;;;;;;;1.83;1.27;;;;;;;13.51;100.00;96312.13;5002384;28;20160;-67
2022/06/09 04:25:53;;;;;;;4.88;1.10;;;;;;;13.62;100.00;96320.38;5001916;28;20057;-65
2022/06/09 04:28:19;;;;;;;4.05;1.45;;;;;;;13.54;100.00;96327.06;5000552;28;20391;-66
2022/06/09 04:30:46;;;;;;;1.95;1.23;;;;;;;13.59;100.00;96332.16;5006859;28;20042;-66
2022/06/09 04:33:12;;;;;;;2.45;1.20;;;;;;;13.70;100.00;96330.19;5002159;28;20072;-66
2022/06/09 04:35:37;;;;;;;3.53;0.90;;;;;;;13.74;100.00;96341.22;5009641;28;20041;-68
2022/06/09 04:38:03;;;;;;;3.55;1.10;;;;;;;13.81;100.00;96332.94;5001736;28;20132;-65
2022/06/09 04:40:32;;;;;;;1.90;1.15;;;;;;;13.86;100.00;96349.03;5009717;28;20711;-66
2022/06/09 04:42:58;;;;;;;2.28;1.33;;;;;;;13.92;100.00;96349.44;5009570;28;20088;-66
2022/06/09 04:45:23;;;;;;;2.53;1.00;;;;;;;13.92;100.00;96357.69;5002194;28;20915;-66
2022/06/09 04:47:49;;;;;;;2.58;1.00;;;;;;;13.96;100.00;96359.22;5011268;28;20113;-66
2022/06/09 04:50:16;;;;;;;3.10;1.10;;;;;;;13.91;100.00;96356.09;5005054;28;20038;-66
2022/06/09 04:52:42;;;;;;;2.13;1.00;;;;;;;13.83;100.00;96360.84;5014072;28;20529;-67
2022/06/09 04:55:08;;;;;;;3.88;1.33;;;;;;;13.88;100.00;96368.72;5002510;28;20084;-67
2022/06/09 04:57:34;;;;;;;2.88;1.30;;;;;;;13.83;100.00;96371.84;5008717;28;20046;-65
2022/06/09 05:00:00;;;;;;;3.08;1.20;;;;;;;13.80;100.00;96371.88;5012037;28;20051;-66
2022/06/09 05:02:26;;;;;;;1.80;1.30;;;;;;;13.65;100.00;96380.13;5000874;28;20050;-68
2022/06/09 05:04:51;;;;;;;3.85;1.27;;;;;;;13.63;100.00;96382.50;5007133;28;20045;-67
2022/06/09 05:07:17;;;;;;;2.40;1.13;;;;;;;13.68;100.00;96387.59;5001212;28;20421;-67
2022/06/09 05:09:42;;;;;;;4.00;1.58;;;;;;;13.71;100.00;96386.81;5014502;28;20045;-67
2022/06/09 05:12:08;;;;;;;3.97;1.40;;;;;;;13.80;100.00;96393.88;5007948;28;20048;-66
2022/06/09 05:14:33;;;;;;;3.33;1.42;;;;;;;13.72;100.00;96393.88;5020600;28;20041;-67
2022/06/09 05:16:59;;;;;;;3.67;1.35;;;;;;;13.72;100.00;96395.84;5020411;28;20049;-67
2022/06/09 05:19:25;;;;;;;2.30;1.30;;;;;;;13.80;100.00;96393.88;5009971;28;20050;-67
2022/06/09 05:21:50;;;;;;;3.08;1.50;;;;;;;13.75;100.00;96401.34;5006306;28;20130;-67
2022/06/09 05:24:16;;;;;;;2.60;1.20;;;;;;;13.73;100.00;96402.94;4996148;28;20039;-70
2022/06/09 05:26:41;;;;;;;2.53;1.13;;;;;;;13.78;100.00;96413.53;4999508;28;20082;-66
2022/06/09 05:29:08;;;;;;;3.58;2.03;;;;;;;13.77;100.00;96411.94;4995146;28;20038;-66
2022/06/09 05:31:33;;;;;;;4.07;1.40;;;;;;;13.95;100.00;96420.19;5002575;28;20067;-68
2022/06/09 05:33:59;;;;;;;2.75;1.30;;;;;;;14.11;100.00;96426.06;5000596;28;20606;-68
2022/06/09 05:36:24;;;;;;;2.53;1.38;;;;;;;14.14;100.00;96430.78;4988926;28;20049;-66
2022/06/09 05:47:03;;;;;;;5.57;1.50;;;;;;;13.89;100.00;96432.81;4996287;28;20148;-67
2022/06/09 05:49:30;;;;;;;4.03;1.60;;;;;;;13.73;100.00;96441.44;4990972;28;20040;-66
2022/06/09 05:51:56;;;;;;;2.90;1.20;;;;;;;13.47;100.00;96440.66;4992986;28;20054;-67
2022/06/09 05:54:25;;;;;;;3.80;1.38;;;;;;;13.44;100.00;96441.44;4985605;28;20296;-67
2022/06/09 05:56:50;;;;;;;4.40;1.20;;;;;;;13.40;100.00;96446.16;4999265;28;20041;-68
2022/06/09 05:59:16;;;;;;;3.22;1.20;;;;;;;13.49;100.00;96443.03;4988708;28;20046;-65
2022/06/09 06:01:41;;;;;;;3.70;1.50;;;;;;;13.27;100.00;96447.66;4997102;28;20046;-67
2022/06/09 06:04:08;;;;;;;4.18;1.52;;;;;;;13.39;100.00;96447.31;4993117;28;20046;-66
2022/06/09 06:06:34;;;;;;;3.10;1.33;;;;;;;13.57;100.00;96455.59;4996792;28;20592;-66
2022/06/09 06:09:06;;;;;;;7.70;1.90;;;;;;;13.60;100.00;96457.56;5003282;28;20046;-66
2022/06/09 06:11:34;;;;;;;5.50;1.60;;;;;;;13.76;100.00;96465.44;5020498;28;20445;-67
2022/06/09 06:14:00;;;;;;;3.05;1.30;;;;;;;13.86;100.00;96463.88;4986357;28;20074;-67
2022/06/09 06:16:26;;;;;;;3.00;1.02;;;;;;;13.92;100.00;96460.31;4998648;28;20567;-66
2022/06/09 06:18:52;;;;;;;6.18;1.75;;;;;;;13.99;100.00;96451.28;5003283;28;20109;-66
2022/06/09 06:21:19;;;;;;;8.55;2.53;;;;;;;14.06;100.00;96461.47;5002189;28;20037;-65
2022/06/09 06:23:45;;;;;;;1.95;1.25;;;;;;;14.31;100.00;96462.25;5009065;28;20607;-66
2022/06/09 06:26:11;;;;;;;6.45;1.85;;;;;;;14.30;100.00;96470.91;5001233;28;20038;-66
2022/06/09 06:28:37;;;;;;;6.15;1.50;;;;;;;14.31;100.00;96475.22;5004306;28;20060;-65
2022/06/09 06:31:03;;;;;;;5.32;1.55;;;;;;;14.52;100.00;96477.16;4982186;28;20401;-64
2022/06/09 06:33:28;;;;;;;3.38;1.35;;;;;;;14.64;100.00;96481.47;5004822;28;20046;-66
2022/06/09 06:35:54;;;;;;;4.80;1.20;;;;;;;14.46;100.00;96482.28;5002825;28;20052;-67
2022/06/09 06:38:20;;;;;;;3.22;0.90;;;;;;;14.77;100.00;96484.59;4991485;28;20434;-66
2022/06/09 06:40:46;;;;;;;2.92;1.40;;;;;;;15.07;100.00;96489.56;5002944;28;20062;-68
2022/06/09 06:43:12;;;;;;;3.40;1.25;;;;;;;15.70;100.00;96489.63;5007864;28;20038;-66
2022/06/09 06:45:38;;;;;;;3.40;0.95;;;;;;;16.05;100.00;96485.00;5003097;28;20062;-69
2022/06/09 06:48:03;;;;;;;2.70;0.70;;;;;;;16.84;100.00;96500.84;4998089;28;20053;-68
2022/06/09 06:50:29;;;;;;;2.50;0.70;;;;;;;16.92;100.00;96498.78;5000052;28;20077;-67
2022/06/09 06:52:55;;;;;;;1.55;0.60;;;;;;;17.18;100.00;96502.81;4992634;28;20398;-65
2022/06/09 06:55:22;;;;;;;1.77;0.80;;;;;;;18.10;100.00;96493.59;4995796;28;20050;-64
2022/06/09 06:57:48;;;;;;;3.60;0.70;;;;;;;18.06;100.00;96504.72;5001500;28;20491;-64
2022/06/09 07:00:19;;;;;;;2.35;0.73;;;;;;;18.48;100.00;96504.41;4995438;28;20469;-64
2022/06/09 07:02:45;;;;;;;0.75;0.45;;;;;;;18.92;96.08;96513.50;5021415;28;20041;-66
2022/06/09 07:05:11;;;;;;;1.92;0.80;;;;;;;17.75;99.45;96512.28;4991553;28;20113;-66
2022/06/09 07:07:39;;;;;;;2.80;0.80;;;;;;;17.71;98.05;96512.34;4988476;28;20101;-65
2022/06/09 07:10:06;;;;;;;1.02;0.52;;;;;;;17.73;99.45;96520.22;4996448;28;20054;-63
2022/06/09 07:12:32;;;;;;;1.30;0.70;;;;;;;17.44;100.00;96515.09;4996703;28;20052;-64
2022/06/09 07:14:58;;;;;;;3.67;1.05;;;;;;;17.42;100.00;96517.50;4999403;28;20053;-63
2022/06/09 07:17:24;;;;;;;5.43;1.20;;;;;;;17.92;100.00;96518.81;4999457;28;20543;-66
2022/06/09 07:19:49;;;;;;;2.35;0.85;;;;;;;17.72;100.00;96521.44;5003925;28;20145;-65
2022/06/09 07:22:15;;;;;;;4.32;0.80;;;;;;;17.47;100.00;96524.56;5013445;28;20124;-66
2022/06/09 07:24:41;;;;;;;1.85;0.63;;;;;;;16.62;100.00;96525.16;5009373;28;20375;-65
2022/06/09 07:27:06;;;;;;;2.72;0.80;;;;;;;16.65;100.00;96531.84;4998258;28;20096;-65
2022/06/09 07:29:32;;;;;;;1.50;0.60;;;;;;;16.31;100.00;96530.56;5015512;28;20485;-65
2022/06/09 07:31:58;;;;;;;3.10;0.80;;;;;;;16.27;100.00;96540.88;5017318;28;20050;-65
2022/06/09 07:34:23;;;;;;;3.40;0.70;;;;;;;16.42;100.00;96545.09;5014486;28;20042;-65
2022/06/09 07:36:49;;;;;;;4.50;1.48;;;;;;;16.73;100.00;96541.63;5032188;28;20038;-64
2022/06/09 07:39:14;;;;;;;4.95;1.67;;;;;;;16.81;100.00;96543.88;5018986;28;20064;-66
2022/06/09 07:41:40;;;;;;;2.83;0.93;;;;;;;16.72;100.00;96540.84;5002186;28;20495;-66
2022/06/09 07:44:08;;;;;;;2.33;0.82;;;;;;;16.18;100.00;96540.56;4997292;28;20045;-65
2022/06/09 07:46:35;;;;;;;3.58;1.00;;;;;;;15.97;100.00;96542.31;5001953;28;20049;-65
2022/06/09 07:49:01;;;;;;;1.52;0.70;;;;;;;15.91;100.00;96543.13;5002783;28;20052;-66
2022/06/09 07:51:29;;;;;;;2.22;0.82;;;;;;;15.34;100.00;96545.03;4999164;28;20044;-66
2022/06/09 07:53:56;;;;;;;2.80;0.95;;;;;;;15.06;100.00;96543.94;5004769;28;20124;-65
2022/06/09 07:56:22;;;;;;;1.88;0.90;;;;;;;14.66;100.00;96551.56;5009529;28;20072;-67
2022/06/09 07:58:47;;;;;;;2.42;0.82;;;;;;;14.36;100.00;96554.72;5017628;28;20099;-64
2022/06/09 08:01:13;;;;;;;2.65;0.93;;;;;;;14.32;100.00;96562.97;4999269;28;20042;-65
2022/06/09 08:03:41;;;;;;;3.03;1.02;;;;;;;14.46;100.00;96564.94;5002920;28;20038;-63
2022/06/09 08:06:08;;;;;;;3.58;0.98;;;;;;;14.45;100.00;96565.34;4995967;28;20188;-66
2022/06/09 08:08:34;;;;;;;2.65;1.00;;;;;;;14.55;100.00;96561.78;5000615;28;20046;-64
2022/06/09 08:10:59;;;;;;;3.83;0.93;;;;;;;14.56;100.00;96565.31;4997628;28;20069;-63
2022/06/09 08:13:25;;;;;;;3.80;1.08;;;;;;;14.49;100.00;96572.41;4992433;28;20050;-64
2022/06/09 08:15:51;;;;;;;2.10;0.98;;;;;;;14.62;100.00;96575.59;5002967;28;20136;-64
2022/06/09 08:18:17;;;;;;;4.00;0.90;;;;;;;14.75;100.00;96570.44;5000392;28;20564;-64
2022/06/09 08:20:44;;;;;;;1.10;0.60;;;;;;;14.80;100.00;96561.78;5006551;28;20081;-64
2022/06/09 08:23:15;;;;;;;3.10;0.80;;;;;;;14.86;100.00;96556.63;5021085;28;20405;-64
2022/06/09 08:25:43;;;;;;;2.47;0.77;;;;;;;15.15;100.00;96562.84;5002769;28;20096;-64
2022/06/09 08:28:10;;;;;;;2.45;0.60;;;;;;;15.55;100.00;96559.91;4999227;28;20045;-62
2022/06/09 08:30:36;;;;;;;4.45;0.82;;;;;;;15.99;100.00;96570.31;5001421;28;20046;-63
2022/06/09 08:33:03;;;;;;;2.65;1.20;;;;;;;15.90;100.00;96572.72;5004150;28;20038;-63
2022/06/09 08:35:29;;;;;;;3.35;1.58;;;;;;;16.06;100.00;96577.72;5021639;28;20089;-63
2022/06/09 08:37:55;;;;;;;5.07;1.17;;;;;;;16.09;100.00;96576.94;5028486;28;20414;-65
2022/06/09 08:40:23;;;;;;;4.57;1.05;;;;;;;16.04;100.00;96578.16;5033166;28;20057;-69
2022/06/09 08:43:20;;;;;;;3.47;1.15;;;;;;;16.16;100.00;96576.88;5027197;28;20029;-66
2022/06/09 08:45:48;;;;;;;3.97;1.25;;;;;;;16.22;100.00;96574.47;5022970;28;20038;-64
2022/06/09 08:48:25;;;;;;;3.75;1.00;;;;;;;16.16;100.00;96576.09;5037419;28;20411;-63
2022/06/09 08:51:01;;;;;;;6.32;0.90;;;;;;;15.87;100.00;96584.59;5004644;28;20100;-64
2022/06/09 08:53:37;;;;;;;4.45;1.30;;;;;;;15.48;100.00;96589.13;5001645;28;20114;-64
2022/06/09 08:56:17;;;;;;;3.63;1.17;;;;;;;15.60;100.00;96600.88;5002622;28;20042;-64
2022/06/09 08:59:03;;;;;;;4.18;1.38;;;;;;;14.99;100.00;96598.34;5003342;28;20042;-63
2022/06/09 09:01:41;;;;;;;4.47;1.02;;;;;;;14.70;100.00;96604.69;4999319;28;20058;-64
2022/06/09 09:04:27;;;;;;;4.28;1.30;;;;;;;14.07;100.00;96606.25;4993346;28;20125;-65
2022/06/09 09:07:25;;;;;;;4.07;1.42;;;;;;;13.68;100.00;96613.25;5000595;28;20041;-65
2022/06/09 09:09:55;;;;;;;4.75;0.88;;;;;;;13.57;100.00;96615.19;4994610;28;20053;-64
2022/06/09 09:12:54;;;;;;;2.95;0.82;;;;;;;13.48;100.00;96618.31;4997373;28;20042;-65
2022/06/09 09:15:31;;;;;;;3.67;1.37;;;;;;;13.56;100.00;96621.88;4995005;28;20112;-67
2022/06/09 09:18:21;;;;;;;2.38;0.80;;;;;;;13.47;100.00;96621.44;5006556;28;20285;-67
2022/06/09 09:20:56;;;;;;;6.95;0.95;;;;;;;13.30;100.00;96622.94;5005186;28;20099;-67
2022/06/09 09:23:31;;;;;;;4.05;0.70;;;;;;;13.48;100.00;96623.03;4995907;28;20100;-66
2022/06/09 09:26:20;;;;;;;3.17;0.90;;;;;;;13.27;100.00;96613.50;5005999;28;20048;-66
2022/06/09 09:28:50;;;;;;;1.63;0.50;;;;;;;13.19;100.00;96615.41;5008430;28;20104;-67
2022/06/09 09:31:28;;;;;;;1.63;0.60;;;;;;;13.18;100.00;96613.03;5010459;28;20046;-65
2022/06/09 09:33:55;;;;;;;1.38;0.70;;;;;;;13.43;100.00;96615.94;5005877;28;20455;-68
2022/06/09 09:36:37;;;;;;;2.50;0.68;;;;;;;13.73;100.00;96615.63;5002780;28;20038;-67
2022/06/09 09:39:16;;;;;;;2.67;0.90;;;;;;;14.14;100.00;96620.03;5007217;28;20112;-67
2022/06/09 09:41:42;;;;;;;2.65;0.90;;;;;;;14.46;100.00;96630.31;5004640;28;20421;-66
2022/06/09 09:44:27;;;;;;;2.33;0.82;;;;;;;14.67;100.00;96621.25;5001007;28;20046;-66
2022/06/09 09:46:56;;;;;;;1.13;0.70;;;;;;;15.08;100.00;96634.56;5004835;28;20042;-65
2022/06/09 09:49:31;;;;;;;4.68;1.38;;;;;;;15.11;100.00;96628.28;5001279;28;20494;-67
2022/06/09 09:51:58;;;;;;;3.65;0.85;;;;;;;15.25;100.00;96627.41;5005497;28;20101;-67
2022/06/09 09:54:36;;;;;;;4.95;0.80;;;;;;;14.71;100.00;96627.53;4999657;28;20042;-67
2022/06/09 09:57:18;;;;;;;4.68;0.93;;;;;;;14.75;100.00;96633.03;5006687;28;20152;-66
2022/06/09 09:59:51;;;;;;;4.47;1.00;;;;;;;14.81;100.00;96621.22;5019375;28;20038;-67
2022/06/09 10:08:40;;;;;;;5.18;1.25;;;;;;;15.50;100.00;96641.13;5011483;28;20517;-68
2022/06/09 10:14:38;;;;;;;3.05;0.88;;;;;;;15.90;100.00;96647.31;4997773;28;20136;-67
2022/06/09 10:17:22;;;;;;;9.88;6.13;;;;;;;16.01;100.00;96641.72;5000489;28;20041;-69
2022/06/09 10:20:17;;;;;;;17.45;5.85;;;;;;;15.65;100.00;96641.88;5003061;28;20061;-68
2022/06/09 10:22:54;;;;;;;1.63;0.40;;;;;;;16.18;100.00;96637.25;4983228;28;20050;-67
2022/06/09 10:25:29;;;;;;;1.85;0.65;;;;;;;16.50;100.00;96637.03;5015426;28;20038;-65
2022/06/09 10:28:03;;;;;;;1.25;0.55;;;;;;;16.70;100.00;96644.75;5008757;28;20046;-65
2022/06/09 10:30:54;;;;;;;2.38;0.60;;;;;;;16.85;100.00;96645.44;5010730;28;20120;-65
2022/06/09 10:33:51;;;;;;;3.60;0.75;;;;;;;16.79;97.31;96645.06;5006277;28;20076;-64
2022/06/09 10:36:37;;;;;;;1.55;0.30;;;;;;;17.26;93.93;96645.44;5005901;28;20034;-64
2022/06/09 10:39:16;;;;;;;3.38;0.50;;;;;;;18.28;93.18;96646.53;5016305;28;20431;-64
2022/06/09 10:41:47;;;;;;;1.52;0.43;;;;;;;18.70;86.27;96657.38;5017020;28;20474;-65
2022/06/09 10:44:22;;;;;;;1.42;0.40;;;;;;;18.53;85.78;96653.69;5019046;28;20038;-64
2022/06/09 10:55:37;;;;;;;1.60;0.40;;;;;;;19.25;70.55;96652.47;4991800;28;20053;-64
2022/06/09 10:58:17;;;;;;;3.80;0.50;;;;;;;18.90;71.76;96651.91;4995405;28;20129;-63
2022/06/09 11:00:48;;;;;;;1.35;0.40;;;;;;;18.78;74.80;96653.28;5000682;28;20043;-64
2022/06/09 11:03:27;;;;;;;1.27;0.30;;;;;;;18.86;73.78;96651.97;4988527;28;20049;-64
2022/06/09 11:05:58;;;;;;;2.67;0.47;;;;;;;18.45;77.30;96653.00;4991885;28;20174;-65
2022/06/09 11:08:46;;;;;;;2.50;0.57;;;;;;;18.52;75.63;96657.66;4985318;28;20062;-65
2022/06/09 11:11:35;;;;;;;1.25;0.40;;;;;;;18.37;77.26;96650.78;4995043;28;20036;-65
2022/06/09 11:14:25;;;;;;;2.33;0.57;;;;;;;18.18;79.51;96655.00;4999495;28;20041;-65
2022/06/09 11:17:32;;;;;;;2.55;1.10;;;;;;;18.65;74.08;96653.06;4995266;28;20099;-65
2022/06/09 11:20:01;;;;;;;1.67;0.38;;;;;;;18.65;73.38;96650.28;5015512;28;20064;-65
2022/06/09 11:22:36;;;;;;;2.03;0.50;;;;;;;19.21;68.82;96644.22;5026037;28;20049;-65
2022/06/09 11:25:21;;;;;;;4.32;0.68;;;;;;;19.60;67.82;96650.22;5026571;28;20044;-65
2022/06/09 11:27:54;;;;;;;1.77;0.70;;;;;;;20.11;64.38;96647.19;5016085;28;20054;-65
2022/06/09 11:30:29;;;;;;;1.80;0.45;;;;;;;19.55;65.68;96645.16;4998771;28;20042;-65
2022/06/09 11:33:34;;;;;;;1.90;0.40;;;;;;;19.28;67.39;96654.38;4994391;28;20077;-65
2022/06/09 11:36:29;;;;;;;2.13;0.57;;;;;;;19.73;65.20;96659.50;4984947;28;20042;-65
2022/06/09 11:39:26;;;;;;;4.05;0.90;;;;;;;19.33;64.27;96658.69;4985824;28;20064;-65
2022/06/09 11:42:09;;;;;;;1.75;0.40;;;;;;;20.13;64.98;96653.91;5008235;28;20041;-65
2022/06/09 11:44:37;;;;;;;3.75;0.40;;;;;;;20.09;63.95;96655.94;5007952;28;20111;-64
2022/06/09 11:47:09;;;;;;;1.30;0.50;;;;;;;20.03;63.50;96652.91;5003395;28;20045;-64
2022/06/09 11:49:44;;;;;;;3.40;0.93;;;;;;;20.37;60.36;96662.88;5009329;28;20042;-64
2022/06/09 11:52:16;;;;;;;3.35;0.88;;;;;;;19.78;64.62;96655.44;5002695;28;20088;-63
2022/06/09 11:54:57;;;;;;;2.40;0.47;;;;;;;19.58;63.67;96658.19;5010434;28;20042;-65
2022/06/09 11:57:34;;;;;;;1.77;0.60;;;;;;;19.06;69.56;96660.34;5003397;28;20366;-65
2022/06/09 12:00:04;;;;;;;2.67;0.70;;;;;;;18.88;67.09;96654.31;5009602;28;20669;-65
2022/06/09 12:02:56;;;;;;;2.53;0.47;;;;;;;18.48;69.99;96659.69;5010265;28;20041;-66
2022/06/09 12:05:34;;;;;;;1.38;0.55;;;;;;;18.61;69.30;96657.91;5015421;28;20543;-65
2022/06/09 12:08:25;;;;;;;1.88;0.50;;;;;;;18.53;70.44;96657.22;5026670;28;20080;-64
2022/06/09 12:11:01;;;;;;;2.42;0.88;;;;;;;17.54;72.27;96658.16;5015263;28;20046;-64